createdAt,value
2019-06-20T00:00:46.921Z,12.18
2019-06-20T00:03:14.220Z,12.35
2019-06-20T00:05:41.556Z,12.15
2019-06-20T00:08:08.879Z,11.78
2019-06-20T00:10:36.251Z,11.68
2019-06-20T00:13:03.753Z,12.37
2019-06-20T00:15:31.103Z,12.40
2019-06-20T00:17:58.436Z,11.53
2019-06-20T00:20:25.760Z,12.13
2019-06-20T00:22:53.082Z,11.22
2019-06-20T00:25:20.419Z,10.58
2019-06-20T00:27:47.743Z,11.15
2019-06-20T00:30:15.132Z,9.93
2019-06-20T00:32:42.400Z,9.95
2019-06-20T00:35:09.729Z,9.40
2019-06-20T00:37:37.133Z,10.05
2019-06-20T00:40:05.742Z,10.23
2019-06-20T00:42:33.050Z,9.65
2019-06-20T00:45:00.399Z,9.73
2019-06-20T00:47:27.713Z,9.68
2019-06-20T00:49:55.052Z,10.23
2019-06-20T00:52:22.381Z,10.38
2019-06-20T00:54:49.705Z,11.50
2019-06-20T00:57:17.048Z,11.85
2019-06-20T00:59:44.380Z,12.20
2019-06-20T01:02:11.723Z,11.70
2019-06-20T01:04:39.055Z,11.78
2019-06-20T01:07:06.507Z,10.72
2019-06-20T01:09:33.797Z,9.90
2019-06-20T01:12:01.177Z,10.53
2019-06-20T01:14:28.517Z,10.30
2019-06-20T01:16:55.863Z,10.13
2019-06-20T01:19:23.294Z,9.70
2019-06-20T01:21:50.633Z,10.20
2019-06-20T01:24:17.941Z,10.25
2019-06-20T01:26:45.277Z,9.98
2019-06-20T01:29:12.583Z,10.40
2019-06-20T01:31:39.943Z,9.48
2019-06-20T01:34:07.253Z,10.30
2019-06-20T01:36:34.587Z,10.95
2019-06-20T01:39:01.898Z,12.07
2019-06-20T01:41:29.229Z,10.72
2019-06-20T01:43:56.541Z,11.70
2019-06-20T01:46:23.881Z,10.80
2019-06-20T01:48:51.202Z,10.45
2019-06-20T01:51:18.533Z,10.32
2019-06-20T01:53:45.857Z,11.38
2019-06-20T01:56:13.199Z,10.70
2019-06-20T01:58:40.506Z,11.25
2019-06-20T02:01:07.844Z,9.45
2019-06-20T02:03:35.156Z,10.65
2019-06-20T02:06:02.498Z,10.50
2019-06-20T02:08:29.807Z,10.98
2019-06-20T02:10:57.172Z,10.75
2019-06-20T02:13:24.489Z,10.10
2019-06-20T02:15:51.807Z,11.18
2019-06-20T02:18:19.133Z,11.15
2019-06-20T02:20:50.728Z,10.25
2019-06-20T02:23:18.074Z,11.22
2019-06-20T02:25:45.387Z,10.50
2019-06-20T02:28:12.744Z,11.65
2019-06-20T02:30:40.044Z,11.05
2019-06-20T02:33:07.427Z,10.68
2019-06-20T02:35:34.756Z,11.43
2019-06-20T02:38:02.083Z,11.00
2019-06-20T02:40:29.389Z,11.05
2019-06-20T02:42:56.722Z,10.55
2019-06-20T02:45:24.039Z,11.12
2019-06-20T02:47:51.370Z,10.65
2019-06-20T02:50:18.682Z,10.85
2019-06-20T02:52:46.107Z,10.20
2019-06-20T02:55:13.429Z,10.32
2019-06-20T02:57:40.941Z,10.32
2019-06-20T03:00:08.276Z,10.03
2019-06-20T03:02:35.662Z,10.35
2019-06-20T03:05:04.549Z,9.58
2019-06-20T03:07:31.900Z,10.28
2019-06-20T03:09:59.201Z,9.80
2019-06-20T03:12:26.525Z,9.78
2019-06-20T03:14:53.845Z,10.82
2019-06-20T03:17:21.192Z,10.28
2019-06-20T03:19:48.501Z,11.22
2019-06-20T03:22:15.834Z,10.68
2019-06-20T03:24:43.129Z,9.90
2019-06-20T03:27:10.460Z,10.75
2019-06-20T03:29:37.796Z,10.40
2019-06-20T03:32:05.121Z,9.78
2019-06-20T03:34:32.416Z,10.23
2019-06-20T03:36:59.752Z,9.15
2019-06-20T03:39:27.052Z,10.25
2019-06-20T03:41:54.380Z,9.68
2019-06-20T03:44:21.688Z,10.32
2019-06-20T03:46:49.051Z,10.28
2019-06-20T03:49:16.354Z,9.75
2019-06-20T03:51:43.692Z,9.68
2019-06-20T03:54:10.980Z,9.23
2019-06-20T03:56:38.288Z,9.85
2019-06-20T03:59:05.626Z,9.88
2019-06-20T04:01:32.930Z,9.00
2019-06-20T04:04:00.254Z,9.85
2019-06-20T04:06:27.568Z,10.05
2019-06-20T04:08:54.900Z,8.63
2019-06-20T04:11:22.237Z,10.15
2019-06-20T04:13:49.550Z,9.83
2019-06-20T04:16:16.892Z,10.65
2019-06-20T04:18:44.220Z,9.40
2019-06-20T04:21:11.536Z,9.13
2019-06-20T04:23:38.860Z,9.08
2019-06-20T04:26:06.240Z,10.85
2019-06-20T04:28:33.572Z,8.85
2019-06-20T04:31:00.885Z,9.33
2019-06-20T04:33:28.193Z,8.50
2019-06-20T04:35:55.584Z,9.20
2019-06-20T04:38:22.984Z,8.98
2019-06-20T04:40:50.298Z,9.50
2019-06-20T04:43:17.634Z,9.73
2019-06-20T04:46:04.492Z,9.05
2019-06-20T04:48:31.866Z,9.13
2019-06-20T04:50:59.170Z,8.45
2019-06-20T04:53:26.510Z,8.50
2019-06-20T04:55:53.814Z,8.05
2019-06-20T04:58:21.150Z,8.55
2019-06-20T05:00:48.471Z,9.38
2019-06-20T05:03:15.776Z,8.95
2019-06-20T05:05:43.131Z,8.68
2019-06-20T05:08:10.428Z,8.65
2019-06-20T05:10:37.735Z,9.05
2019-06-20T05:13:05.069Z,8.95
2019-06-20T05:15:32.366Z,9.23
2019-06-20T05:17:59.760Z,8.45
2019-06-20T05:20:27.064Z,7.80
2019-06-20T05:22:54.403Z,8.10
2019-06-20T05:25:21.709Z,8.10
2019-06-20T05:27:49.051Z,8.25
2019-06-20T05:30:16.354Z,7.08
2019-06-20T05:32:43.760Z,7.35
2019-06-20T05:35:11.110Z,6.75
2019-06-20T05:37:38.437Z,8.35
2019-06-20T05:40:06.632Z,7.28
2019-06-20T05:42:34.057Z,7.72
2019-06-20T05:45:01.390Z,6.30
2019-06-20T05:47:28.698Z,7.40
2019-06-20T05:49:56.062Z,7.37
2019-06-20T05:52:23.367Z,6.72
2019-06-20T05:54:50.706Z,7.55
2019-06-20T05:57:18.008Z,7.67
2019-06-20T05:59:45.342Z,7.08
2019-06-20T06:02:12.688Z,7.70
2019-06-20T06:04:39.994Z,8.48
2019-06-20T06:07:07.303Z,8.10
2019-06-20T06:09:34.701Z,7.22
2019-06-20T06:12:02.024Z,8.23
2019-06-20T06:14:29.345Z,8.18
2019-06-20T06:16:56.664Z,7.30
2019-06-20T06:19:24.024Z,7.35
2019-06-20T06:21:51.351Z,7.42
2019-06-20T06:24:18.669Z,6.67
2019-06-20T06:26:46.011Z,6.25
2019-06-20T06:29:13.336Z,6.65
2019-06-20T06:31:40.674Z,6.72
2019-06-20T06:34:07.993Z,6.40
2019-06-20T06:36:35.608Z,6.95
2019-06-20T06:39:04.006Z,7.58
2019-06-20T06:41:31.356Z,6.80
2019-06-20T06:43:58.712Z,6.25
2019-06-20T06:46:39.932Z,6.60
2019-06-20T06:48:54.990Z,6.62
2019-06-20T06:51:22.381Z,6.80
2019-06-20T06:53:49.718Z,9.28
2019-06-20T06:56:17.041Z,19.60
2019-06-20T06:58:44.392Z,13.20
2019-06-20T07:01:11.730Z,13.62
2019-06-20T07:03:39.161Z,14.83
2019-06-20T07:06:06.606Z,24.43
2019-06-20T07:08:34.076Z,16.80
2019-06-20T07:11:01.510Z,14.23
2019-06-20T07:13:28.874Z,22.58
2019-06-20T07:15:56.346Z,9.63
2019-06-20T07:18:23.669Z,6.97
2019-06-20T07:20:50.992Z,6.58
2019-06-20T07:23:18.322Z,5.90
2019-06-20T07:25:45.716Z,5.83
2019-06-20T07:28:13.038Z,6.15
2019-06-20T07:30:40.375Z,6.10
2019-06-20T07:33:07.781Z,5.53
2019-06-20T07:35:35.138Z,5.55
2019-06-20T07:38:02.631Z,5.33
2019-06-20T07:40:29.931Z,5.90
2019-06-20T07:42:57.266Z,6.22
2019-06-20T07:45:27.292Z,6.70
2019-06-20T07:47:54.244Z,5.85
2019-06-20T07:50:21.587Z,4.97
2019-06-20T07:53:01.529Z,5.70
2019-06-20T07:55:17.885Z,6.47
2019-06-20T07:57:45.202Z,6.10
2019-06-20T08:00:12.547Z,5.97
2019-06-20T08:02:39.846Z,5.50
2019-06-20T08:05:07.206Z,5.50
2019-06-20T08:07:34.523Z,5.47
2019-06-20T08:10:01.938Z,5.92
2019-06-20T08:12:29.328Z,5.42
2019-06-20T08:14:57.491Z,5.78
2019-06-20T08:17:35.511Z,5.53
2019-06-20T08:19:55.238Z,5.40
2019-06-20T08:22:22.733Z,5.83
2019-06-20T08:24:50.066Z,6.25
2019-06-20T08:27:19.014Z,5.97
2019-06-20T08:29:46.405Z,6.22
2019-06-20T08:32:13.793Z,5.87
2019-06-20T08:34:41.162Z,6.15
2019-06-20T08:37:08.471Z,6.92
2019-06-20T08:39:35.870Z,6.95
2019-06-20T08:42:04.352Z,6.85
2019-06-20T08:44:32.545Z,7.42
2019-06-20T08:47:01.136Z,7.10
2019-06-20T08:49:28.909Z,7.17
2019-06-20T08:51:57.307Z,5.70
2019-06-20T08:54:24.769Z,6.40
2019-06-20T08:56:52.102Z,7.08
2019-06-20T08:59:24.399Z,7.85
2019-06-20T09:01:48.442Z,6.47
2019-06-20T09:04:15.835Z,7.00
2019-06-20T09:06:43.240Z,6.42
2019-06-20T09:09:10.586Z,7.85
2019-06-20T09:11:38.200Z,5.60
2019-06-20T09:14:05.643Z,6.92
2019-06-20T09:16:32.971Z,7.85
2019-06-20T09:19:00.520Z,7.37
2019-06-20T09:21:27.849Z,7.20
2019-06-20T09:23:55.713Z,6.70
2019-06-20T09:26:23.007Z,6.78
2019-06-20T09:28:51.017Z,6.90
2019-06-20T09:31:19.342Z,7.10
2019-06-20T09:33:46.756Z,6.72
2019-06-20T09:36:14.066Z,8.03
2019-06-20T09:38:41.410Z,7.75
2019-06-20T09:41:08.748Z,7.28
2019-06-20T09:43:36.050Z,7.87
2019-06-20T09:46:03.407Z,8.85
2019-06-20T09:48:30.717Z,10.38
2019-06-20T09:50:58.620Z,10.58
2019-06-20T09:53:25.955Z,22.90
2019-06-20T09:55:53.729Z,13.03
2019-06-20T09:58:21.402Z,9.05
2019-06-20T10:00:49.280Z,9.55
2019-06-20T10:03:16.824Z,9.20
2019-06-20T10:05:44.114Z,9.45
2019-06-20T10:08:11.440Z,7.90
2019-06-20T10:10:38.762Z,9.48
2019-06-20T10:13:06.195Z,8.45
2019-06-20T10:15:35.161Z,7.80
2019-06-20T10:18:02.635Z,8.28
2019-06-20T10:20:29.980Z,7.60
2019-06-20T10:22:57.596Z,8.18
2019-06-20T10:25:26.187Z,6.90
2019-06-20T10:27:53.703Z,6.42
2019-06-20T10:30:38.545Z,7.45
2019-06-20T10:33:05.995Z,8.43
2019-06-20T10:35:33.565Z,8.40
2019-06-20T10:38:00.915Z,6.83
2019-06-20T10:40:28.220Z,6.60
2019-06-20T10:42:56.682Z,7.92
2019-06-20T10:45:24.455Z,8.33
2019-06-20T10:47:52.915Z,8.05
2019-06-20T10:50:20.476Z,8.18
2019-06-20T10:52:48.168Z,7.72
2019-06-20T10:55:16.134Z,7.78
2019-06-20T10:57:44.540Z,8.28
2019-06-20T11:00:13.067Z,8.15
2019-06-20T11:02:41.713Z,7.28
2019-06-20T11:05:09.501Z,6.87
2019-06-20T11:07:36.827Z,6.72
2019-06-20T11:10:07.761Z,6.20
2019-06-20T11:12:45.692Z,5.85
2019-06-20T11:15:07.450Z,5.70
2019-06-20T11:17:34.778Z,6.47
2019-06-20T11:20:02.267Z,7.17
2019-06-20T11:22:29.770Z,7.40
2019-06-20T11:24:57.091Z,7.62
2019-06-20T11:27:24.553Z,7.45
2019-06-20T11:29:51.972Z,6.42
2019-06-20T11:32:19.461Z,6.40
2019-06-20T11:34:47.546Z,7.47
2019-06-20T11:37:15.049Z,7.10
2019-06-20T11:39:43.234Z,7.00
2019-06-20T11:42:10.596Z,6.03
2019-06-20T11:44:38.918Z,7.87
2019-06-20T11:47:06.205Z,8.05
2019-06-20T11:49:34.709Z,8.10
2019-06-20T11:52:02.614Z,8.90
2019-06-20T11:54:30.012Z,9.25
2019-06-20T11:56:57.403Z,9.53
2019-06-20T11:59:24.781Z,9.40
2019-06-20T12:01:52.113Z,9.13
2019-06-20T12:04:19.426Z,9.13
2019-06-20T12:06:47.178Z,9.78
2019-06-20T12:09:14.556Z,9.75
2019-06-20T12:11:42.408Z,9.13
2019-06-20T12:14:09.723Z,9.13
2019-06-20T12:16:39.071Z,9.10
2019-06-20T12:19:06.019Z,10.82
2019-06-20T12:21:33.345Z,10.00
2019-06-20T12:24:00.677Z,10.28
2019-06-20T12:26:27.983Z,10.50
2019-06-20T12:28:55.360Z,9.60
2019-06-20T12:31:22.731Z,9.65
2019-06-20T12:33:50.065Z,10.35
2019-06-20T12:36:17.382Z,10.25
2019-06-20T12:38:46.143Z,10.20
2019-06-20T12:41:13.641Z,9.98
2019-06-20T12:43:41.870Z,9.78
2019-06-20T12:46:09.177Z,10.58
2019-06-20T12:48:36.507Z,8.77
2019-06-20T12:51:03.890Z,9.75
2019-06-20T12:53:31.208Z,9.65
2019-06-20T12:55:58.509Z,7.75
2019-06-20T12:58:25.968Z,9.13
2019-06-20T13:00:53.287Z,11.10
2019-06-20T13:03:20.615Z,9.08
2019-06-20T13:05:49.043Z,10.38
2019-06-20T13:08:16.456Z,10.55
2019-06-20T13:10:44.259Z,10.80
2019-06-20T13:13:11.559Z,9.55
2019-06-20T13:15:39.116Z,8.80
2019-06-20T13:18:07.709Z,9.73
2019-06-20T13:20:35.007Z,9.50
2019-06-20T13:23:02.349Z,8.55
2019-06-20T13:25:29.653Z,8.00
2019-06-20T13:27:56.971Z,7.87
2019-06-20T13:30:24.286Z,8.08
2019-06-20T13:32:51.679Z,8.60
2019-06-20T13:35:19.009Z,7.92
2019-06-20T13:37:47.937Z,6.37
2019-06-20T13:40:15.440Z,7.53
2019-06-20T13:42:44.196Z,6.85
2019-06-20T13:45:21.702Z,8.50
2019-06-20T13:47:49.922Z,7.35
2019-06-20T13:50:17.315Z,7.58
2019-06-20T13:52:46.442Z,8.53
2019-06-20T13:55:13.623Z,8.30
2019-06-20T13:57:41.729Z,8.23
2019-06-20T14:00:10.235Z,8.00
2019-06-20T14:02:38.061Z,7.72
2019-06-20T14:05:05.349Z,8.40
2019-06-20T14:07:32.691Z,7.65
2019-06-20T14:09:59.981Z,7.75
2019-06-20T14:12:27.286Z,8.30
2019-06-20T14:14:54.656Z,7.55
2019-06-20T14:17:21.922Z,7.78
2019-06-20T14:19:49.253Z,7.92
2019-06-20T14:22:16.565Z,8.08
2019-06-20T14:24:45.041Z,7.62
2019-06-20T14:27:12.391Z,6.85
2019-06-20T14:29:39.825Z,7.62
2019-06-20T14:32:21.276Z,7.40
2019-06-20T14:34:36.141Z,6.92
2019-06-20T14:37:03.474Z,6.80
2019-06-20T14:39:34.074Z,7.35
2019-06-20T14:41:59.765Z,7.05
2019-06-20T14:44:27.093Z,7.35
2019-06-20T14:46:54.401Z,7.47
2019-06-20T14:49:21.817Z,6.70
2019-06-20T14:51:50.117Z,8.05
2019-06-20T14:54:19.654Z,7.87
2019-06-20T14:56:47.843Z,7.97
2019-06-20T14:59:15.275Z,8.25
2019-06-20T15:01:44.612Z,8.50
2019-06-20T15:04:11.555Z,7.25
2019-06-20T15:06:38.878Z,8.03
2019-06-20T15:09:06.926Z,8.65
2019-06-20T15:11:34.265Z,8.68
2019-06-20T15:14:01.657Z,8.95
2019-06-20T15:16:28.953Z,8.15
2019-06-20T15:18:57.242Z,8.45
2019-06-20T15:21:24.607Z,8.03
2019-06-20T15:23:52.582Z,8.83
2019-06-20T15:26:22.950Z,7.87
2019-06-20T15:28:51.812Z,8.10
2019-06-20T15:31:19.402Z,8.28
2019-06-20T15:33:47.903Z,8.83
2019-06-20T15:36:15.708Z,8.73
2019-06-20T15:38:43.057Z,8.80
2019-06-20T15:41:15.378Z,6.62
2019-06-20T15:43:42.693Z,7.87
2019-06-20T15:46:10.033Z,7.83
2019-06-20T15:48:38.385Z,8.43
2019-06-20T15:51:05.813Z,8.73
2019-06-20T15:53:33.125Z,8.13
2019-06-20T15:56:00.684Z,9.50
2019-06-20T15:58:29.366Z,8.70
2019-06-20T16:00:56.762Z,8.35
2019-06-20T16:03:24.407Z,8.73
2019-06-20T16:05:53.447Z,8.05
2019-06-20T16:08:20.762Z,7.67
2019-06-20T16:10:48.071Z,7.30
2019-06-20T16:13:15.617Z,6.90
2019-06-20T16:15:44.651Z,7.78
2019-06-20T16:18:11.975Z,8.15
2019-06-20T16:20:39.299Z,6.97
2019-06-20T16:23:06.619Z,7.37
2019-06-20T16:25:33.914Z,7.50
2019-06-20T16:28:01.216Z,7.40
2019-06-20T16:30:28.610Z,6.45
2019-06-20T16:32:55.903Z,7.00
2019-06-20T16:35:23.329Z,7.35
2019-06-20T16:37:50.616Z,7.35
2019-06-20T16:40:19.569Z,6.45
2019-06-20T16:42:46.869Z,7.03
2019-06-20T16:45:14.285Z,6.40
2019-06-20T16:47:41.625Z,6.72
2019-06-20T16:50:08.921Z,7.05
2019-06-20T16:52:36.239Z,7.12
2019-06-20T16:55:04.226Z,7.35
2019-06-20T16:57:31.532Z,7.10
2019-06-20T16:59:58.847Z,6.37
2019-06-20T17:02:26.164Z,6.90
2019-06-20T17:04:56.455Z,6.85
2019-06-20T17:07:22.437Z,6.75
2019-06-20T17:09:49.964Z,6.10
2019-06-20T17:12:17.265Z,6.03
2019-06-20T17:14:44.590Z,5.92
2019-06-20T17:17:11.895Z,7.30
2019-06-20T17:19:42.043Z,6.75
2019-06-20T17:22:08.176Z,6.97
2019-06-20T17:24:35.504Z,6.12
2019-06-20T17:27:02.834Z,6.75
2019-06-20T17:29:30.830Z,6.80
2019-06-20T17:31:58.443Z,6.62
2019-06-20T17:34:25.777Z,6.60
2019-06-20T17:36:53.140Z,7.00
2019-06-20T17:39:20.504Z,6.58
2019-06-20T17:41:55.081Z,7.22
2019-06-20T17:44:16.781Z,6.75
2019-06-20T17:46:44.108Z,6.97
2019-06-20T17:49:11.429Z,7.08
2019-06-20T17:51:38.763Z,6.95
2019-06-20T17:54:06.115Z,6.45
2019-06-20T17:56:33.449Z,7.08
2019-06-20T17:59:00.749Z,6.87
2019-06-20T18:01:29.090Z,6.50
2019-06-20T18:03:56.440Z,7.17
2019-06-20T18:06:23.756Z,7.40
2019-06-20T18:08:51.095Z,6.90
2019-06-20T18:11:18.421Z,6.30
2019-06-20T18:13:45.779Z,7.28
2019-06-20T18:16:24.488Z,7.35
2019-06-20T18:18:42.103Z,7.47
2019-06-20T18:21:09.599Z,7.50
2019-06-20T18:23:36.915Z,7.55
2019-06-20T18:26:04.237Z,7.55
2019-06-20T18:28:31.540Z,7.33
2019-06-20T18:30:58.865Z,7.80
2019-06-20T18:33:26.358Z,8.35
2019-06-20T18:35:53.766Z,7.87
2019-06-20T18:38:21.091Z,8.20
2019-06-20T18:40:48.755Z,7.62
2019-06-20T18:43:16.131Z,8.00
2019-06-20T18:45:43.715Z,7.72
2019-06-20T18:48:11.335Z,7.87
2019-06-20T18:50:38.987Z,7.10
2019-06-20T18:53:06.617Z,8.08
2019-06-20T18:55:34.303Z,7.40
2019-06-20T18:58:02.105Z,8.85
2019-06-20T19:00:34.484Z,8.25
2019-06-20T19:03:00.205Z,7.75
2019-06-20T19:05:27.801Z,8.53
2019-06-20T19:07:55.488Z,7.65
2019-06-20T19:10:23.100Z,7.40
2019-06-20T19:12:51.660Z,7.53
2019-06-20T19:15:19.183Z,7.90
2019-06-20T19:17:46.723Z,7.95
2019-06-20T19:20:14.573Z,7.78
2019-06-20T19:22:42.124Z,7.90
2019-06-20T19:25:09.434Z,8.30
2019-06-20T19:27:46.308Z,7.65
2019-06-20T19:30:07.089Z,8.50
2019-06-20T19:32:34.728Z,8.75
2019-06-20T19:35:02.842Z,8.38
2019-06-20T19:37:30.672Z,9.43
2019-06-20T19:39:57.969Z,7.97
2019-06-20T19:42:25.595Z,8.28
2019-06-20T19:44:53.213Z,7.37
2019-06-20T19:47:20.866Z,7.17
2019-06-20T19:49:48.293Z,8.53
2019-06-20T19:52:15.983Z,7.00
2019-06-20T19:54:43.629Z,7.90
2019-06-20T19:57:11.445Z,7.72
2019-06-20T19:59:39.706Z,9.10
2019-06-20T20:02:07.471Z,8.53
2019-06-20T20:04:35.085Z,9.00
2019-06-20T20:07:02.742Z,9.88
2019-06-20T20:09:30.375Z,8.78
2019-06-20T20:11:58.132Z,8.85
2019-06-20T20:14:25.815Z,8.73
2019-06-20T20:16:54.481Z,9.00
2019-06-20T20:19:22.165Z,8.20
2019-06-20T20:21:49.819Z,7.78
2019-06-20T20:24:17.430Z,6.70
2019-06-20T20:26:45.088Z,8.75
2019-06-20T20:29:12.731Z,9.35
2019-06-20T20:31:40.693Z,8.85
2019-06-20T20:34:11.732Z,10.00
2019-06-20T20:36:37.590Z,8.03
2019-06-20T20:39:06.561Z,8.95
2019-06-20T20:41:34.273Z,9.65
2019-06-20T20:44:01.577Z,8.75
2019-06-20T20:46:28.879Z,8.70
2019-06-20T20:48:56.252Z,9.63
2019-06-20T20:51:23.599Z,8.70
2019-06-20T20:53:50.889Z,9.85
2019-06-20T20:56:18.290Z,10.53
2019-06-20T20:58:45.611Z,9.48
2019-06-20T21:01:17.484Z,10.38
2019-06-20T21:03:44.814Z,9.93
2019-06-20T21:06:12.127Z,9.78
2019-06-20T21:08:39.508Z,9.93
2019-06-20T21:11:06.834Z,9.90
2019-06-20T21:13:34.192Z,10.05
2019-06-20T21:16:01.488Z,10.40
2019-06-20T21:18:28.820Z,10.03
2019-06-20T21:20:56.204Z,10.03
2019-06-20T21:23:23.550Z,10.45
2019-06-20T21:25:50.867Z,10.15
2019-06-20T21:28:18.198Z,10.18
2019-06-20T21:30:45.590Z,10.82
2019-06-20T21:33:12.917Z,10.20
2019-06-20T21:35:40.509Z,11.28
2019-06-20T21:38:07.837Z,11.73
2019-06-20T21:40:35.168Z,10.93
2019-06-20T21:43:02.487Z,11.00
2019-06-20T21:45:29.819Z,11.80
2019-06-20T21:47:57.162Z,9.60
2019-06-20T21:50:24.465Z,10.82
2019-06-20T21:52:51.792Z,10.85
2019-06-20T21:55:19.112Z,10.93
2019-06-20T21:57:46.516Z,10.60
2019-06-20T22:00:15.457Z,10.43
2019-06-20T22:02:42.776Z,10.30
2019-06-20T22:05:10.094Z,9.43
2019-06-20T22:07:37.416Z,9.03
2019-06-20T22:10:06.294Z,8.30
2019-06-20T22:12:33.616Z,8.18
2019-06-20T22:15:00.950Z,7.62
2019-06-20T22:17:28.236Z,8.73
2019-06-20T22:19:55.560Z,8.70
2019-06-20T22:22:22.858Z,8.23
2019-06-20T22:24:50.226Z,9.13
2019-06-20T22:27:17.528Z,8.23
2019-06-20T22:29:44.940Z,7.58
2019-06-20T22:32:12.240Z,8.63
2019-06-20T22:34:39.564Z,8.68
2019-06-20T22:37:06.868Z,8.85
2019-06-20T22:39:34.271Z,8.45
2019-06-20T22:42:01.600Z,9.18
2019-06-20T22:44:28.932Z,8.90
2019-06-20T22:46:56.233Z,8.38
2019-06-20T22:49:23.554Z,7.90
2019-06-20T22:51:50.860Z,8.10
2019-06-20T22:54:18.172Z,7.92
2019-06-20T22:56:45.484Z,8.10
2019-06-20T22:59:12.830Z,7.72
2019-06-20T23:01:40.124Z,8.33
2019-06-20T23:04:07.447Z,8.05
2019-06-20T23:06:34.741Z,8.48
2019-06-20T23:09:02.069Z,7.67
2019-06-20T23:11:29.412Z,8.33
2019-06-20T23:13:56.737Z,6.83
2019-06-20T23:16:24.048Z,7.75
2019-06-20T23:18:51.364Z,8.23
2019-06-20T23:21:18.669Z,7.40
2019-06-20T23:23:45.984Z,7.83
2019-06-20T23:26:13.551Z,8.68
2019-06-20T23:28:40.940Z,8.90
2019-06-20T23:31:08.268Z,10.55
2019-06-20T23:33:35.576Z,10.95
2019-06-20T23:36:02.891Z,10.20
2019-06-20T23:38:30.240Z,10.68
2019-06-20T23:40:57.546Z,10.82
2019-06-20T23:43:24.878Z,8.80
2019-06-20T23:45:52.351Z,8.18
2019-06-20T23:48:19.643Z,7.33
2019-06-20T23:50:46.964Z,7.55
2019-06-20T23:53:15.918Z,7.00
2019-06-20T23:55:43.239Z,6.30
2019-06-20T23:58:10.540Z,6.25
